createdAt,value
2018-09-14T00:00:35.069Z,69.23
2018-09-14T00:03:03.894Z,49.70
2018-09-14T00:05:32.299Z,56.83
2018-09-14T00:08:00.692Z,51.93
2018-09-14T00:10:29.017Z,46.50
2018-09-14T00:12:57.345Z,41.60
2018-09-14T00:15:25.648Z,53.90
2018-09-14T00:17:53.978Z,43.33
2018-09-14T00:20:22.379Z,48.70
2018-09-14T00:22:50.808Z,42.03
2018-09-14T00:25:19.132Z,41.30
2018-09-14T00:27:47.484Z,43.50
2018-09-14T00:30:15.912Z,46.60
2018-09-14T00:32:44.248Z,30.57
2018-09-14T00:35:12.555Z,46.20
2018-09-14T00:37:40.981Z,39.47
2018-09-14T00:40:09.292Z,26.83
2018-09-14T00:42:37.619Z,54.80
2018-09-14T00:45:06.289Z,30.13
2018-09-14T00:47:34.615Z,25.63
2018-09-14T00:50:02.909Z,39.47
2018-09-14T00:52:31.331Z,45.03
2018-09-14T00:54:59.636Z,39.83
2018-09-14T00:57:27.951Z,37.60
2018-09-14T00:59:56.248Z,40.20
2018-09-14T01:02:24.572Z,48.77
2018-09-14T01:04:52.876Z,49.83
2018-09-14T01:07:21.206Z,45.63
2018-09-14T01:09:49.560Z,59.00
2018-09-14T01:12:17.892Z,48.77
2018-09-14T01:14:46.192Z,63.77
2018-09-14T01:17:14.577Z,43.63
2018-09-14T01:19:42.836Z,49.57
2018-09-14T01:22:11.166Z,56.53
2018-09-14T01:24:39.466Z,57.00
2018-09-14T01:27:07.892Z,57.77
2018-09-14T01:29:36.197Z,53.10
2018-09-14T01:32:04.516Z,63.57
2018-09-14T01:34:32.862Z,62.23
2018-09-14T01:37:01.172Z,49.80
2018-09-14T01:39:29.475Z,45.60
2018-09-14T01:41:57.800Z,42.63
2018-09-14T01:44:26.121Z,46.17
2018-09-14T01:46:54.512Z,42.90
2018-09-14T01:49:22.834Z,50.13
2018-09-14T01:51:51.132Z,44.23
2018-09-14T01:54:19.456Z,49.63
2018-09-14T01:56:47.792Z,57.37
2018-09-14T01:59:16.117Z,52.73
2018-09-14T02:01:44.434Z,50.33
2018-09-14T02:04:12.757Z,49.73
2018-09-14T02:06:41.132Z,58.30
2018-09-14T02:09:10.327Z,73.87
2018-09-14T02:11:38.641Z,65.17
2018-09-14T02:14:07.052Z,51.37
2018-09-14T02:16:35.480Z,69.43
2018-09-14T02:19:04.096Z,76.60
2018-09-14T02:21:32.402Z,76.00
2018-09-14T02:24:00.824Z,81.10
2018-09-14T02:26:29.125Z,91.47
2018-09-14T02:28:57.451Z,86.40
2018-09-14T02:31:25.750Z,79.93
2018-09-14T02:33:54.072Z,85.53
2018-09-14T02:36:22.372Z,98.70
2018-09-14T02:38:50.692Z,87.03
2018-09-14T02:41:18.988Z,97.03
2018-09-14T02:43:47.545Z,110.43
2018-09-14T02:46:15.853Z,97.77
2018-09-14T02:48:44.188Z,91.87
2018-09-14T02:51:12.501Z,105.50
2018-09-14T02:53:40.840Z,106.17
2018-09-14T02:56:09.140Z,85.83
2018-09-14T02:58:37.488Z,96.20
2018-09-14T03:01:05.858Z,84.83
2018-09-14T03:03:34.187Z,85.23
2018-09-14T03:06:02.494Z,82.77
2018-09-14T03:08:30.819Z,76.73
2018-09-14T03:10:59.140Z,79.80
2018-09-14T03:13:27.480Z,80.47
2018-09-14T03:15:55.780Z,77.07
2018-09-14T03:18:24.169Z,80.00
2018-09-14T03:20:52.460Z,81.07
2018-09-14T03:23:20.771Z,84.60
2018-09-14T03:25:49.069Z,82.80
2018-09-14T03:28:17.442Z,92.97
2018-09-14T03:30:45.751Z,105.23
2018-09-14T03:33:14.073Z,94.80
2018-09-14T03:35:42.376Z,92.70
2018-09-14T03:38:10.695Z,92.47
2018-09-14T03:40:39.009Z,95.63
2018-09-14T03:43:07.328Z,87.87
2018-09-14T03:45:35.639Z,73.23
2018-09-14T03:48:04.065Z,91.27
2018-09-14T03:50:32.496Z,81.67
2018-09-14T03:53:00.865Z,67.87
2018-09-14T03:55:29.167Z,70.77
2018-09-14T03:57:57.472Z,80.27
2018-09-14T04:00:25.792Z,86.53
2018-09-14T04:02:54.083Z,92.53
2018-09-14T04:05:22.396Z,95.10
2018-09-14T04:07:50.784Z,106.40
2018-09-14T04:10:19.076Z,95.80
2018-09-14T04:12:47.384Z,100.63
2018-09-14T04:15:15.692Z,93.27
2018-09-14T04:17:43.992Z,83.60
2018-09-14T04:20:12.318Z,86.33
2018-09-14T04:22:40.620Z,83.33
2018-09-14T04:25:08.939Z,78.27
2018-09-14T04:27:37.244Z,72.37
2018-09-14T04:30:05.564Z,88.67
2018-09-14T04:32:33.856Z,82.07
2018-09-14T04:35:02.176Z,82.70
2018-09-14T04:37:30.480Z,87.20
2018-09-14T04:39:58.797Z,93.33
2018-09-14T04:42:27.107Z,80.83
2018-09-14T04:44:55.436Z,78.87
2018-09-14T04:47:23.745Z,66.47
2018-09-14T04:49:52.064Z,63.10
2018-09-14T04:52:20.376Z,70.13
2018-09-14T04:54:48.692Z,50.23
2018-09-14T04:57:17.165Z,61.43
2018-09-14T04:59:45.440Z,42.00
2018-09-14T05:02:13.744Z,46.90
2018-09-14T05:04:42.080Z,51.73
2018-09-14T05:07:10.392Z,42.00
2018-09-14T05:09:38.733Z,47.13
2018-09-14T05:12:07.139Z,39.70
2018-09-14T05:14:35.461Z,36.63
2018-09-14T05:17:03.768Z,37.70
2018-09-14T05:19:32.125Z,31.80
2018-09-14T05:22:00.424Z,30.13
2018-09-14T05:24:28.848Z,26.40
2018-09-14T05:26:57.132Z,28.23
2018-09-14T05:29:25.483Z,25.13
2018-09-14T05:31:54.120Z,19.90
2018-09-14T05:34:22.525Z,27.13
2018-09-14T05:36:51.008Z,26.40
2018-09-14T05:39:19.327Z,19.63
2018-09-14T05:41:47.632Z,22.93
2018-09-14T05:44:15.952Z,16.43
2018-09-14T05:46:44.255Z,12.63
2018-09-14T05:49:12.577Z,15.00
2018-09-14T05:51:40.890Z,15.20
2018-09-14T05:54:09.200Z,13.40
2018-09-14T05:56:37.502Z,12.93
2018-09-14T05:59:05.873Z,10.63
2018-09-14T06:01:34.172Z,13.00
2018-09-14T06:04:02.508Z,10.60
2018-09-14T06:06:31.034Z,11.70
2018-09-14T06:08:59.313Z,10.90
2018-09-14T06:11:27.648Z,13.40
2018-09-14T06:13:55.970Z,11.77
2018-09-14T06:16:24.292Z,12.77
2018-09-14T06:18:52.596Z,15.13
2018-09-14T06:21:20.915Z,13.47
2018-09-14T06:23:49.328Z,14.73
2018-09-14T06:26:17.640Z,16.23
2018-09-14T06:28:45.941Z,15.47
2018-09-14T06:31:14.263Z,12.70
2018-09-14T06:33:42.580Z,15.90
2018-09-14T06:36:10.880Z,12.90
2018-09-14T06:38:39.229Z,14.07
2018-09-14T06:41:07.532Z,9.10
2018-09-14T06:43:35.860Z,8.80
2018-09-14T06:46:04.163Z,13.80
2018-09-14T06:48:32.480Z,14.17
2018-09-14T06:51:00.784Z,13.50
2018-09-14T06:53:29.096Z,10.10
2018-09-14T06:55:57.396Z,21.00
2018-09-14T06:58:25.924Z,14.37
2018-09-14T07:00:54.224Z,13.63
2018-09-14T07:03:22.520Z,12.47
2018-09-14T07:05:50.873Z,21.00
2018-09-14T07:08:19.184Z,14.97
2018-09-14T07:10:47.521Z,15.03
2018-09-14T07:13:15.856Z,19.97
2018-09-14T07:15:44.185Z,17.73
2018-09-14T07:18:12.496Z,13.33
2018-09-14T07:20:40.808Z,13.43
2018-09-14T07:23:09.363Z,13.77
2018-09-14T07:25:37.699Z,12.60
2018-09-14T07:28:05.995Z,13.87
2018-09-14T07:30:34.343Z,17.30
2018-09-14T07:33:02.648Z,16.47
2018-09-14T07:35:31.204Z,15.47
2018-09-14T07:37:59.500Z,12.77
2018-09-14T07:40:27.816Z,12.73
2018-09-14T07:42:56.117Z,11.83
2018-09-14T07:45:24.436Z,12.50
2018-09-14T07:47:52.723Z,13.83
2018-09-14T07:50:21.041Z,11.23
2018-09-14T07:52:49.340Z,12.30
2018-09-14T07:55:17.705Z,11.47
2018-09-14T07:57:45.974Z,12.40
2018-09-14T08:00:14.296Z,9.80
2018-09-14T08:02:42.600Z,10.87
2018-09-14T08:05:10.920Z,14.30
2018-09-14T08:07:39.230Z,13.90
2018-09-14T08:10:07.568Z,13.70
2018-09-14T08:12:35.920Z,13.13
2018-09-14T08:15:04.228Z,13.20
2018-09-14T08:17:32.532Z,11.43
2018-09-14T08:20:00.916Z,9.10
2018-09-14T08:22:29.297Z,11.27
2018-09-14T08:24:57.755Z,13.30
2018-09-14T08:27:26.061Z,12.50
2018-09-14T08:29:54.376Z,14.07
2018-09-14T08:32:22.708Z,16.33
2018-09-14T08:34:51.028Z,17.90
2018-09-14T08:37:19.591Z,21.13
2018-09-14T08:39:47.924Z,21.27
2018-09-14T08:42:16.221Z,30.57
2018-09-14T08:44:44.543Z,33.03
2018-09-14T08:47:12.852Z,25.77
2018-09-14T08:49:41.177Z,26.20
2018-09-14T08:52:09.490Z,29.13
2018-09-14T08:54:37.808Z,27.80
2018-09-14T08:57:06.124Z,23.53
2018-09-14T08:59:34.487Z,27.07
2018-09-14T09:02:02.800Z,19.00
2018-09-14T09:04:31.131Z,18.53
2018-09-14T09:06:59.436Z,18.70
2018-09-14T09:09:27.751Z,17.93
2018-09-14T09:11:56.084Z,21.43
2018-09-14T09:14:24.385Z,18.63
2018-09-14T09:16:52.700Z,12.50
2018-09-14T09:19:21.009Z,12.93
2018-09-14T09:21:49.340Z,17.30
2018-09-14T09:24:17.653Z,16.17
2018-09-14T09:26:45.969Z,18.70
2018-09-14T09:29:14.298Z,16.13
2018-09-14T09:31:42.649Z,14.70
2018-09-14T09:34:10.952Z,17.97
2018-09-14T09:36:39.274Z,8.37
2018-09-14T09:39:09.579Z,12.00
2018-09-14T09:41:37.895Z,7.53
2018-09-14T09:44:06.522Z,10.30
2018-09-14T09:46:34.836Z,8.00
2018-09-14T09:49:03.123Z,10.67
2018-09-14T09:51:31.458Z,14.50
2018-09-14T09:53:59.756Z,15.97
2018-09-14T09:56:28.192Z,14.97
2018-09-14T09:58:56.504Z,15.63
2018-09-14T10:01:33.751Z,14.73
2018-09-14T10:04:07.988Z,14.60
2018-09-14T10:06:36.276Z,15.80
2018-09-14T10:09:07.604Z,8.40
2018-09-14T10:11:35.968Z,13.87
2018-09-14T10:14:04.703Z,11.50
2018-09-14T10:16:32.983Z,16.33
2018-09-14T10:19:01.299Z,20.90
2018-09-14T10:21:29.680Z,13.00
2018-09-14T10:23:57.941Z,16.10
2018-09-14T10:26:26.250Z,16.50
2018-09-14T10:28:54.563Z,13.40
2018-09-14T10:31:22.863Z,15.33
2018-09-14T10:33:51.362Z,7.33
2018-09-14T10:36:19.604Z,8.40
2018-09-14T10:38:47.964Z,6.53
2018-09-14T10:41:16.264Z,10.50
2018-09-14T10:43:44.613Z,12.57
2018-09-14T10:46:12.944Z,11.27
2018-09-14T10:48:41.272Z,7.73
2018-09-14T10:51:09.708Z,6.70
2018-09-14T10:53:38.015Z,10.37
2018-09-14T10:56:06.334Z,14.47
2018-09-14T10:58:40.030Z,22.83
2018-09-14T11:01:08.339Z,15.23
2018-09-14T11:03:36.648Z,9.50
2018-09-14T11:06:04.940Z,11.10
2018-09-14T11:08:33.324Z,14.90
2018-09-14T11:11:01.684Z,15.20
2018-09-14T11:13:30.020Z,9.47
2018-09-14T11:15:58.316Z,15.27
2018-09-14T11:18:26.900Z,8.20
2018-09-14T11:20:55.199Z,9.20
2018-09-14T11:23:23.513Z,8.90
2018-09-14T11:25:51.808Z,10.87
2018-09-14T11:28:20.123Z,12.60
2018-09-14T11:30:48.462Z,10.43
2018-09-14T11:33:16.776Z,9.53
2018-09-14T11:35:45.069Z,11.70
2018-09-14T11:38:13.470Z,8.97
2018-09-14T11:40:41.721Z,11.73
2018-09-14T11:43:10.021Z,17.73
2018-09-14T11:45:38.436Z,18.37
2018-09-14T11:48:06.797Z,11.53
2018-09-14T11:50:35.133Z,11.03
2018-09-14T11:53:03.431Z,27.00
2018-09-14T11:55:31.761Z,11.50
2018-09-14T11:58:00.072Z,10.43
2018-09-14T12:00:28.420Z,11.60
2018-09-14T12:02:56.720Z,11.90
2018-09-14T12:05:25.039Z,13.10
2018-09-14T12:07:53.336Z,11.20
2018-09-14T12:10:21.647Z,10.80
2018-09-14T12:12:49.989Z,13.40
2018-09-14T12:15:18.334Z,9.77
2018-09-14T12:17:46.636Z,10.20
2018-09-14T12:20:14.948Z,10.60
2018-09-14T12:22:44.056Z,12.67
2018-09-14T12:25:12.372Z,9.60
2018-09-14T12:27:40.665Z,10.77
2018-09-14T12:30:08.981Z,11.53
2018-09-14T12:32:37.279Z,12.00
2018-09-14T12:35:05.588Z,9.90
2018-09-14T12:37:33.876Z,13.50
2018-09-14T12:40:02.238Z,19.50
2018-09-14T12:42:30.531Z,12.90
2018-09-14T12:44:58.843Z,10.37
2018-09-14T12:47:27.143Z,11.00
2018-09-14T12:49:55.463Z,14.47
2018-09-14T12:52:23.756Z,12.03
2018-09-14T12:54:52.072Z,10.37
2018-09-14T12:57:20.372Z,9.77
2018-09-14T12:59:48.720Z,10.10
2018-09-14T13:02:17.028Z,11.97
2018-09-14T13:04:45.341Z,12.10
2018-09-14T13:07:13.636Z,8.93
2018-09-14T13:09:41.956Z,11.57
2018-09-14T13:12:10.244Z,11.60
2018-09-14T13:14:38.647Z,13.53
2018-09-14T13:17:11.476Z,10.03
2018-09-14T13:19:40.007Z,11.50
2018-09-14T13:22:08.613Z,11.37
2018-09-14T13:24:36.959Z,13.70
2018-09-14T13:27:05.365Z,11.10
2018-09-14T13:29:33.788Z,12.83
2018-09-14T13:32:02.075Z,13.37
2018-09-14T13:34:30.368Z,12.70
2018-09-14T13:36:58.720Z,15.40
2018-09-14T13:39:27.012Z,14.50
2018-09-14T13:41:55.328Z,12.00
2018-09-14T13:44:23.652Z,15.43
2018-09-14T13:46:51.969Z,12.00
2018-09-14T13:49:20.272Z,13.80
2018-09-14T13:51:48.588Z,11.80
2018-09-14T13:54:16.887Z,12.17
2018-09-14T13:56:45.200Z,12.83
2018-09-14T13:59:13.510Z,13.10
2018-09-14T14:01:41.872Z,14.30
2018-09-14T14:04:10.168Z,14.97
2018-09-14T14:06:38.524Z,13.03
2018-09-14T14:09:10.316Z,16.13
2018-09-14T14:11:38.640Z,16.17
2018-09-14T14:14:07.199Z,15.73
2018-09-14T14:16:35.589Z,16.20
2018-09-14T14:19:03.833Z,14.70
2018-09-14T14:21:32.159Z,11.70
2018-09-14T14:24:00.467Z,13.00
2018-09-14T14:26:28.795Z,8.50
2018-09-14T14:28:57.076Z,9.90
2018-09-14T14:31:25.400Z,11.10
2018-09-14T14:33:53.699Z,11.93
2018-09-14T14:36:22.012Z,12.10
2018-09-14T14:38:50.307Z,8.57
2018-09-14T14:41:18.649Z,18.37
2018-09-14T14:43:47.016Z,12.60
2018-09-14T14:46:15.328Z,8.93
2018-09-14T14:48:44.309Z,10.60
2018-09-14T14:51:12.636Z,10.17
2018-09-14T14:53:40.916Z,9.90
2018-09-14T14:56:09.734Z,11.90
2018-09-14T14:58:38.051Z,10.33
2018-09-14T15:01:06.385Z,11.57
2018-09-14T15:03:34.692Z,14.10
2018-09-14T15:06:03.013Z,17.43
2018-09-14T15:08:31.313Z,11.07
2018-09-14T15:10:59.936Z,11.13
2018-09-14T15:13:28.241Z,11.00
2018-09-14T15:15:56.551Z,9.63
2018-09-14T15:18:24.852Z,10.30
2018-09-14T15:20:53.174Z,10.13
2018-09-14T15:23:21.463Z,11.00
2018-09-14T15:25:49.771Z,13.60
2018-09-14T15:28:18.064Z,13.40
2018-09-14T15:30:46.380Z,13.67
2018-09-14T15:33:14.680Z,16.30
2018-09-14T15:35:42.988Z,12.17
2018-09-14T15:38:11.289Z,13.50
2018-09-14T15:40:39.601Z,12.17
2018-09-14T15:43:07.892Z,10.60
2018-09-14T15:45:36.582Z,14.00
2018-09-14T15:48:04.888Z,9.60
2018-09-14T15:50:33.216Z,12.73
2018-09-14T15:53:01.538Z,43.43
2018-09-14T15:55:29.835Z,11.50
2018-09-14T15:59:01.648Z,28.67
2018-09-14T16:01:29.974Z,9.93
2018-09-14T16:03:58.280Z,12.07
2018-09-14T16:06:26.595Z,10.27
2018-09-14T16:08:54.896Z,11.20
2018-09-14T16:11:23.210Z,14.70
2018-09-14T16:13:51.516Z,12.57
2018-09-14T16:16:19.833Z,12.80
2018-09-14T16:18:48.186Z,14.07
2018-09-14T16:21:16.468Z,11.23
2018-09-14T16:23:44.768Z,11.73
2018-09-14T16:26:13.157Z,10.63
2018-09-14T16:28:41.456Z,11.70
2018-09-14T16:31:09.783Z,11.97
2018-09-14T16:33:38.114Z,11.80
2018-09-14T16:36:06.512Z,10.60
2018-09-14T16:38:35.099Z,11.60
2018-09-14T16:41:03.428Z,16.27
2018-09-14T16:43:31.952Z,16.57
2018-09-14T16:46:00.362Z,18.23
2018-09-14T16:48:28.788Z,20.83
2018-09-14T16:50:57.088Z,13.00
2018-09-14T16:53:25.408Z,13.03
2018-09-14T16:55:53.700Z,21.50
2018-09-14T16:58:22.014Z,25.50
2018-09-14T17:00:50.320Z,25.60
2018-09-14T17:03:18.724Z,13.07
2018-09-14T17:05:47.044Z,12.00
2018-09-14T17:08:15.352Z,12.00
2018-09-14T17:10:43.649Z,10.40
2018-09-14T17:13:12.261Z,13.87
2018-09-14T17:15:40.552Z,10.50
2018-09-14T17:18:08.869Z,11.93
2018-09-14T17:20:37.171Z,23.17
2018-09-14T17:23:05.529Z,10.50
2018-09-14T17:25:33.921Z,13.00
2018-09-14T17:28:02.235Z,10.83
2018-09-14T17:30:30.545Z,14.10
2018-09-14T17:32:58.864Z,16.40
2018-09-14T17:35:27.263Z,17.20
2018-09-14T17:37:55.560Z,14.10
2018-09-14T17:40:23.860Z,12.10
2018-09-14T17:42:52.180Z,9.83
2018-09-14T17:45:20.493Z,16.73
2018-09-14T17:47:48.804Z,10.60
2018-09-14T17:50:17.095Z,11.60
2018-09-14T17:52:45.417Z,15.13
2018-09-14T17:55:13.716Z,16.17
2018-09-14T17:57:42.114Z,14.03
2018-09-14T18:00:11.077Z,11.60
2018-09-14T18:02:39.850Z,12.40
2018-09-14T18:05:08.180Z,12.03
2018-09-14T18:07:36.492Z,12.77
2018-09-14T18:10:05.010Z,16.57
2018-09-14T18:12:33.350Z,14.87
2018-09-14T18:15:01.666Z,11.50
2018-09-14T18:17:29.979Z,12.80
2018-09-14T18:19:58.292Z,10.17
2018-09-14T18:22:26.618Z,12.07
2018-09-14T18:24:55.013Z,15.73
2018-09-14T18:27:23.358Z,10.40
2018-09-14T18:29:51.712Z,11.03
2018-09-14T18:32:20.031Z,11.83
2018-09-14T18:34:48.339Z,17.13
2018-09-14T18:37:16.659Z,13.80
2018-09-14T18:39:44.956Z,11.57
2018-09-14T18:42:13.279Z,17.00
2018-09-14T18:44:41.588Z,10.83
2018-09-14T18:47:09.944Z,12.90
2018-09-14T18:49:38.411Z,12.57
2018-09-14T18:52:07.723Z,11.17
2018-09-14T18:54:36.345Z,14.77
2018-09-14T18:57:04.754Z,11.90
2018-09-14T18:59:33.640Z,12.60
2018-09-14T19:02:05.413Z,14.13
2018-09-14T19:04:33.852Z,15.40
2018-09-14T19:07:02.226Z,14.00
2018-09-14T19:09:31.289Z,17.80
2018-09-14T19:11:59.775Z,13.73
2018-09-14T19:14:28.612Z,16.30
2018-09-14T19:16:56.948Z,16.93
2018-09-14T19:19:25.437Z,17.73
2018-09-14T19:21:55.600Z,18.73
2018-09-14T19:24:24.237Z,17.03
2018-09-14T19:26:53.234Z,16.17
2018-09-14T19:29:22.838Z,13.50
2018-09-14T19:31:51.180Z,13.50
2018-09-14T19:34:19.501Z,13.43
2018-09-14T19:36:47.816Z,12.10
2018-09-14T19:39:16.147Z,20.13
2018-09-14T19:41:45.597Z,20.10
2018-09-14T19:44:13.979Z,26.53
2018-09-14T19:46:42.291Z,22.90
2018-09-14T19:49:10.620Z,20.07
2018-09-14T19:51:39.033Z,22.93
2018-09-14T19:54:07.395Z,23.53
2018-09-14T19:56:35.711Z,15.80
2018-09-14T19:59:04.336Z,14.47
2018-09-14T20:01:32.825Z,22.53
2018-09-14T20:04:03.370Z,27.93
2018-09-14T20:06:31.744Z,22.10
2018-09-14T20:09:01.111Z,25.53
2018-09-14T20:11:30.493Z,23.97
2018-09-14T20:13:59.214Z,30.40
2018-09-14T20:16:29.440Z,22.13
2018-09-14T20:18:57.954Z,15.20
2018-09-14T20:21:28.544Z,20.90
2018-09-14T20:23:59.690Z,53.00
2018-09-14T20:26:28.336Z,40.37
2018-09-14T20:28:56.812Z,26.90
2018-09-14T20:31:25.156Z,27.37
2018-09-14T20:33:53.472Z,31.20
2018-09-14T20:36:21.787Z,20.43
2018-09-14T20:38:50.260Z,23.20
2018-09-14T20:41:18.561Z,22.17
2018-09-14T20:43:47.196Z,21.00
2018-09-14T20:46:15.524Z,19.20
2018-09-14T20:48:43.844Z,21.60
2018-09-14T20:51:12.144Z,15.90
2018-09-14T20:53:40.468Z,16.40
2018-09-14T20:56:08.780Z,16.27
2018-09-14T20:58:37.096Z,22.73
2018-09-14T21:01:05.540Z,16.90
2018-09-14T21:03:33.868Z,17.97
2018-09-14T21:06:02.189Z,21.90
2018-09-14T21:08:30.504Z,16.50
2018-09-14T21:10:58.813Z,14.93
2018-09-14T21:13:27.131Z,18.50
2018-09-14T21:15:56.363Z,16.43
2018-09-14T21:18:24.712Z,16.67
2018-09-14T21:20:53.016Z,12.10
2018-09-14T21:23:21.343Z,12.10
2018-09-14T21:25:49.660Z,18.13
2018-09-14T21:28:17.988Z,20.63
2018-09-14T21:30:46.289Z,37.83
2018-09-14T21:33:14.587Z,16.00
2018-09-14T21:35:42.928Z,21.20
2018-09-14T21:38:11.227Z,16.97
2018-09-14T21:40:39.551Z,20.20
2018-09-14T21:43:07.857Z,18.67
2018-09-14T21:45:36.172Z,14.20
2018-09-14T21:48:04.468Z,15.83
2018-09-14T21:50:32.794Z,16.53
2018-09-14T21:53:01.132Z,13.47
2018-09-14T21:55:29.480Z,13.83
2018-09-14T21:57:57.785Z,15.00
2018-09-14T22:00:31.965Z,13.63
2018-09-14T22:03:00.260Z,10.60
2018-09-14T22:05:28.576Z,13.63
2018-09-14T22:07:56.880Z,16.63
2018-09-14T22:10:25.199Z,13.50
2018-09-14T22:12:53.496Z,14.23
2018-09-14T22:15:21.811Z,15.03
2018-09-14T22:17:50.113Z,17.63
2018-09-14T22:20:18.436Z,17.70
2018-09-14T22:22:46.736Z,20.27
2018-09-14T22:25:15.057Z,20.13
2018-09-14T22:27:43.414Z,17.17
2018-09-14T22:30:11.721Z,11.43
2018-09-14T22:32:40.024Z,11.80
2018-09-14T22:35:08.424Z,17.40
2018-09-14T22:37:36.700Z,19.23
2018-09-14T22:40:05.024Z,18.17
2018-09-14T22:42:33.336Z,19.50
2018-09-14T22:45:01.654Z,14.03
2018-09-14T22:47:29.951Z,19.40
2018-09-14T22:49:58.275Z,22.70
2018-09-14T22:52:26.597Z,18.63
2018-09-14T22:54:54.928Z,12.20
2018-09-14T22:57:23.231Z,15.00
2018-09-14T22:59:51.571Z,13.23
2018-09-14T23:02:19.874Z,10.53
2018-09-14T23:04:48.200Z,15.20
2018-09-14T23:07:16.506Z,13.20
2018-09-14T23:09:44.835Z,16.80
2018-09-14T23:12:13.132Z,10.93
2018-09-14T23:14:41.441Z,16.33
2018-09-14T23:17:09.740Z,13.10
2018-09-14T23:19:38.056Z,21.43
2018-09-14T23:22:06.344Z,12.73
2018-09-14T23:24:34.663Z,17.57
2018-09-14T23:27:02.958Z,14.43
2018-09-14T23:29:31.272Z,16.87
2018-09-14T23:31:59.576Z,12.70
2018-09-14T23:34:27.902Z,12.87
2018-09-14T23:36:56.199Z,11.80
2018-09-14T23:39:24.516Z,15.30
2018-09-14T23:41:52.816Z,12.30
2018-09-14T23:44:21.144Z,13.60
2018-09-14T23:46:49.447Z,13.00
2018-09-14T23:49:17.740Z,14.30
2018-09-14T23:51:46.056Z,15.17
2018-09-14T23:54:14.356Z,13.03
2018-09-14T23:56:42.672Z,11.60
2018-09-14T23:59:10.976Z,13.40
